Time;durP1;ratioP1;P1;durP2;ratioP2;P2;SDS_P1;SDS_P2;PMS_P1;PMS_P2;Temp;Humidity;BMP_temperature;BMP_pressure;BME280_temperature;BME280_humidity;BME280_pressure;Samples;Min_cycle;Max_cycle;Signal;HPM_P1;HPM_P2
2022/12/07 00:01:48;;;;;;;0.10;0.10;;;3.10;99.90;1.80;96698.00;;;;5073854;28;20197;-72
2022/12/07 00:04:19;;;;;;;0.10;0.10;;;3.10;99.90;1.70;96698.00;;;;5073951;28;20213;-73
2022/12/07 00:06:53;;;;;;;0.10;0.10;;;3.10;99.90;1.60;96693.00;;;;5074014;28;20193;-73
2022/12/07 00:09:23;;;;;;;0.10;0.10;;;3.00;99.90;1.60;96687.00;;;;5073103;28;20627;-73
2022/12/07 00:11:53;;;;;;;0.10;0.10;;;3.00;99.90;1.60;96691.00;;;;5073550;28;20618;-73
2022/12/07 00:14:22;;;;;;;0.10;0.10;;;3.00;99.90;1.40;96682.00;;;;5068382;28;20265;-73
2022/12/07 00:16:52;;;;;;;0.10;0.10;;;2.90;99.90;1.50;96682.00;;;;5070413;28;20197;-73
2022/12/07 00:19:20;;;;;;;0.10;0.10;;;2.90;99.90;1.50;96685.00;;;;5072613;28;20699;-73
2022/12/07 00:21:48;;;;;;;0.10;0.10;;;2.90;99.90;1.40;96686.00;;;;5073234;28;20221;-72
2022/12/07 00:24:16;;;;;;;0.10;0.10;;;2.80;99.90;1.50;96676.00;;;;5073380;28;20259;-73
2022/12/07 00:26:46;;;;;;;0.10;0.10;;;2.90;99.90;1.40;96685.00;;;;5074001;28;20197;-73
2022/12/07 00:29:19;;;;;;;0.10;0.10;;;2.80;99.90;1.30;96679.00;;;;5073039;28;20194;-73
2022/12/07 00:31:48;;;;;;;0.10;0.10;;;2.80;99.90;1.50;96675.00;;;;5070722;28;20198;-73
2022/12/07 00:34:19;;;;;;;0.10;0.10;;;2.90;99.90;1.40;96678.00;;;;5078817;28;20737;-72
2022/12/07 00:36:48;;;;;;;0.10;0.10;;;2.80;99.90;1.40;96665.00;;;;5075796;28;20201;-73
2022/12/07 00:39:18;;;;;;;0.10;0.10;;;2.80;99.90;1.40;96660.00;;;;5076894;28;20208;-74
2022/12/07 00:41:47;;;;;;;0.10;0.10;;;2.80;99.90;1.20;96665.00;;;;5081113;28;20213;-73
2022/12/07 00:44:16;;;;;;;0.10;0.10;;;2.80;99.90;1.30;96671.00;;;;5063519;28;20222;-72
2022/12/07 00:46:45;;;;;;;0.10;0.10;;;2.70;99.90;1.20;96656.00;;;;5080435;28;20220;-72
2022/12/07 00:49:13;;;;;;;0.10;0.10;;;2.70;99.90;1.20;96655.00;;;;5074951;28;20209;-74
2022/12/07 00:51:41;;;;;;;0.10;0.10;;;2.70;99.90;1.20;96643.00;;;;5073319;28;20208;-73
2022/12/07 00:54:09;;;;;;;0.10;0.10;;;2.70;99.90;1.20;96647.00;;;;5073611;28;20260;-74
2022/12/07 00:56:37;;;;;;;0.10;0.10;;;2.70;99.90;1.20;96640.00;;;;5070963;28;20255;-76
2022/12/07 00:59:07;;;;;;;0.10;0.10;;;2.60;99.90;1.10;96648.00;;;;5070938;28;20190;-73
2022/12/07 01:01:37;;;;;;;0.10;0.10;;;2.60;99.90;1.10;96651.00;;;;5073268;28;20229;-74
2022/12/07 01:04:06;;;;;;;0.10;0.10;;;2.50;99.90;1.00;96648.00;;;;5072481;28;20214;-73
2022/12/07 01:06:34;;;;;;;0.10;0.10;;;2.50;99.90;1.00;96652.00;;;;5072539;28;20323;-73
2022/12/07 01:09:04;;;;;;;0.10;0.10;;;2.50;99.90;1.00;96648.00;;;;5073222;28;20196;-77
2022/12/07 01:11:33;;;;;;;0.10;0.10;;;2.50;99.90;1.20;96649.00;;;;5058577;28;20206;-77
2022/12/07 01:14:01;;;;;;;0.10;0.10;;;2.60;99.90;1.10;96648.00;;;;5071326;28;20693;-76
2022/12/07 01:16:33;;;;;;;0.10;0.10;;;2.50;99.90;1.10;96650.00;;;;5072129;28;20202;-76
2022/12/07 01:19:04;;;;;;;0.10;0.10;;;2.60;99.90;1.20;96665.00;;;;5068496;28;20194;-77
2022/12/07 01:21:37;;;;;;;0.10;0.10;;;2.60;99.90;1.20;96648.00;;;;5076494;28;20217;-76
2022/12/07 01:24:08;;;;;;;0.10;0.10;;;2.60;99.90;1.20;96640.00;;;;5065835;28;20217;-77
2022/12/07 01:26:36;;;;;;;0.08;0.08;;;2.60;99.90;1.20;96639.00;;;;5072334;28;20198;-76
2022/12/07 01:29:04;;;;;;;0.10;0.10;;;2.50;99.90;1.10;96636.00;;;;5061940;28;20202;-75
2022/12/07 01:31:34;;;;;;;0.10;0.10;;;2.50;99.90;1.20;96656.00;;;;5072323;28;20221;-76
2022/12/07 01:34:03;;;;;;;0.10;0.10;;;2.60;99.90;1.20;96632.00;;;;5072080;28;20217;-75
2022/12/07 01:36:33;;;;;;;0.10;0.10;;;2.50;99.90;1.20;96640.00;;;;5072058;28;20194;-75
2022/12/07 01:39:06;;;;;;;0.10;0.10;;;2.60;99.90;1.20;96635.00;;;;5071861;28;20623;-75
2022/12/07 01:41:40;;;;;;;0.10;0.10;;;2.70;99.90;1.20;96642.00;;;;5072168;28;20217;-76
2022/12/07 01:44:23;;;;;;;0.10;0.10;;;2.60;99.90;0.60;96637.00;;;;5076434;28;20221;-76
2022/12/07 01:46:55;;;;;;;0.10;0.10;;;2.50;99.90;1.10;96569.00;;;;5074970;28;20186;-77
2022/12/07 01:49:30;;;;;;;0.10;0.10;;;2.50;99.90;1.10;96497.00;;;;5075438;28;20280;-75
2022/12/07 01:52:12;;;;;;;0.10;0.10;;;2.50;99.90;1.00;96617.00;;;;5077301;28;20582;-77
2022/12/07 01:54:40;;;;;;;0.10;0.10;;;2.40;99.90;0.90;96589.00;;;;5074229;28;20221;-76
2022/12/07 01:57:10;;;;;;;0.10;0.10;;;2.30;99.90;0.80;96593.00;;;;5073871;28;20194;-77
2022/12/07 01:59:39;;;;;;;0.10;0.10;;;2.30;99.90;0.80;96606.00;;;;5070959;28;20203;-77
2022/12/07 02:02:23;;;;;;;0.10;0.10;;;2.20;99.90;0.80;96592.00;;;;5071837;28;20232;-76
2022/12/07 02:04:54;;;;;;;0.10;0.10;;;2.30;99.90;0.90;96604.00;;;;5071260;28;20704;-77
2022/12/07 02:07:24;;;;;;;0.10;0.10;;;2.30;99.90;0.90;96599.00;;;;5070740;28;20262;-76
2022/12/07 02:09:52;;;;;;;0.10;0.10;;;2.30;99.90;0.90;96593.00;;;;5071605;28;20665;-76
2022/12/07 02:12:23;;;;;;;0.10;0.10;;;2.30;99.90;0.90;96605.00;;;;5072034;28;20197;-76
2022/12/07 02:14:52;;;;;;;0.10;0.10;;;2.20;99.90;0.80;96602.00;;;;5063681;28;20623;-76
2022/12/07 02:17:32;;;;;;;0.10;0.10;;;2.20;99.90;0.70;96605.00;;;;5064531;28;20202;-76
2022/12/07 02:20:20;;;;;;;0.10;0.10;;;2.20;99.90;0.70;96602.00;;;;5069888;28;20201;-76
2022/12/07 02:23:39;;;;;;;0.10;0.10;;;2.20;99.90;0.70;96604.00;;;;5067971;28;20267;-76
2022/12/07 02:26:45;;;;;;;0.10;0.10;;;2.10;99.90;0.60;96610.00;;;;5061642;28;20218;-78
2022/12/07 02:29:23;;;;;;;0.10;0.10;;;2.00;99.90;0.60;96626.00;;;;5055438;28;20237;-77
2022/12/07 02:32:03;;;;;;;0.10;0.10;;;2.00;99.90;0.60;96547.00;;;;5071799;28;20252;-77
2022/12/07 02:34:44;;;;;;;0.10;0.10;;;2.10;99.90;0.50;96610.00;;;;5064426;28;20626;-77
2022/12/07 02:37:27;;;;;;;0.10;0.10;;;2.00;99.90;0.40;96614.00;;;;5070182;28;20588;-77
2022/12/07 02:40:01;;;;;;;0.10;0.10;;;1.90;99.90;0.40;96604.00;;;;5070350;28;20251;-77
2022/12/07 02:42:39;;;;;;;0.10;0.10;;;1.80;99.90;0.40;96597.00;;;;5062955;28;20319;-78
2022/12/07 02:45:13;;;;;;;0.10;0.10;;;1.80;99.90;0.40;96588.00;;;;5074523;28;20709;-77
2022/12/07 02:47:42;;;;;;;0.10;0.10;;;1.80;99.90;0.50;96505.00;;;;5075826;28;20196;-76
2022/12/07 02:50:12;;;;;;;0.10;0.10;;;1.90;99.90;0.50;96594.00;;;;5073374;28;20209;-76
2022/12/07 02:52:40;;;;;;;0.10;0.10;;;1.90;99.90;0.60;96608.00;;;;5071123;28;20602;-77
2022/12/07 02:55:09;;;;;;;0.10;0.10;;;1.90;99.90;0.60;96607.00;;;;5070930;28;20206;-76
2022/12/07 02:57:56;;;;;;;0.10;0.10;;;2.00;99.90;0.50;96607.00;;;;5067986;28;20496;-76
2022/12/07 03:00:25;;;;;;;0.10;0.10;;;2.00;99.90;0.40;96603.00;;;;5063502;28;20202;-76
2022/12/07 03:03:00;;;;;;;0.10;0.10;;;1.90;99.90;0.50;96599.00;;;;5069942;28;20229;-76
2022/12/07 03:06:12;;;;;;;0.10;0.10;;;1.90;99.90;0.40;96572.00;;;;5065039;28;20275;-76
2022/12/07 03:08:56;;;;;;;0.10;0.10;;;1.90;99.90;0.30;96580.00;;;;5053964;28;20266;-76
2022/12/07 03:11:31;;;;;;;0.10;0.10;;;1.80;99.90;0.20;96575.00;;;;5070514;28;21021;-76
2022/12/07 03:14:09;;;;;;;0.10;0.10;;;1.70;99.90;0.20;96562.00;;;;5070987;28;20236;-76
2022/12/07 03:16:48;;;;;;;0.10;0.10;;;1.70;99.90;0.20;96564.00;;;;5070586;28;20669;-74
2022/12/07 03:19:20;;;;;;;0.10;0.10;;;1.70;99.90;0.30;96576.00;;;;5070353;28;20209;-75
2022/12/07 03:21:55;;;;;;;0.10;0.10;;;1.70;99.90;0.40;96561.00;;;;5069750;28;20267;-76
2022/12/07 03:24:32;;;;;;;0.10;0.10;;;1.80;99.90;0.30;96563.00;;;;5066577;28;20232;-75
2022/12/07 03:27:06;;;;;;;0.10;0.10;;;1.80;99.90;0.30;96560.00;;;;5066193;28;20722;-75
2022/12/07 03:29:41;;;;;;;0.10;0.10;;;1.80;99.90;0.40;96568.00;;;;5064647;28;20204;-75
2022/12/07 03:32:20;;;;;;;0.10;0.10;;;1.80;99.90;0.40;96568.00;;;;5070610;28;20250;-75
2022/12/07 03:34:57;;;;;;;0.10;0.10;;;1.80;99.90;0.50;96569.00;;;;5070375;28;20225;-75
2022/12/07 03:37:37;;;;;;;0.10;0.10;;;1.90;99.90;0.30;96563.00;;;;5068403;28;20223;-75
2022/12/07 03:40:13;;;;;;;0.10;0.10;;;1.90;99.90;0.60;96568.00;;;;5075176;28;20189;-75
2022/12/07 03:42:42;;;;;;;0.10;0.10;;;2.00;99.90;0.50;96559.00;;;;5072152;28;20217;-76
2022/12/07 03:45:13;;;;;;;0.10;0.10;;;1.90;99.90;0.50;96557.00;;;;5070250;28;20221;-74
2022/12/07 03:47:50;;;;;;;0.10;0.10;;;1.90;99.90;0.50;96555.00;;;;5069634;28;20734;-74
2022/12/07 03:50:29;;;;;;;0.10;0.10;;;1.90;99.90;0.40;96561.00;;;;5070217;28;20547;-74
2022/12/07 03:53:06;;;;;;;0.10;0.10;;;1.80;99.90;0.40;96561.00;;;;5070264;28;20255;-74
2022/12/07 03:55:40;;;;;;;0.10;0.10;;;1.80;99.90;0.60;96541.00;;;;5064975;28;20271;-76
2022/12/07 03:58:12;;;;;;;0.10;0.10;;;2.00;99.90;0.60;96554.00;;;;5069360;28;20201;-76
2022/12/07 04:00:42;;;;;;;0.10;0.10;;;2.00;99.90;0.60;96564.00;;;;5069744;28;20200;-74
2022/12/07 04:03:12;;;;;;;0.10;0.10;;;2.00;99.90;0.60;96555.00;;;;5066160;28;20221;-74
2022/12/07 04:05:41;;;;;;;0.10;0.10;;;2.10;99.90;0.60;96560.00;;;;5065777;28;20237;-74
2022/12/07 04:08:09;;;;;;;0.10;0.10;;;2.00;99.90;0.60;96551.00;;;;5069249;28;20247;-74
2022/12/07 04:10:38;;;;;;;0.10;0.10;;;2.00;99.90;0.60;96542.00;;;;5069834;28;20683;-73
2022/12/07 04:13:06;;;;;;;0.10;0.10;;;2.00;99.90;0.60;96532.00;;;;5069598;28;20197;-75
2022/12/07 04:15:34;;;;;;;0.10;0.10;;;2.00;99.90;0.60;96543.00;;;;5069876;28;20762;-74
2022/12/07 04:18:02;;;;;;;0.10;0.10;;;2.10;99.90;0.60;96541.00;;;;5069014;28;20669;-74
2022/12/07 04:20:31;;;;;;;0.10;0.10;;;2.10;99.90;0.70;96545.00;;;;5069599;28;20255;-74
2022/12/07 04:23:00;;;;;;;0.10;0.10;;;2.10;99.90;0.70;96540.00;;;;5069387;28;20225;-74
2022/12/07 04:25:28;;;;;;;0.10;0.10;;;2.10;99.90;0.60;96530.00;;;;5069198;28;20221;-74
2022/12/07 04:27:56;;;;;;;0.10;0.10;;;2.10;99.90;0.60;96537.00;;;;5069128;28;20239;-75
2022/12/07 04:30:24;;;;;;;0.10;0.10;;;2.10;99.90;0.70;96523.00;;;;5069531;28;20198;-74
2022/12/07 04:32:52;;;;;;;0.10;0.10;;;2.10;99.90;0.60;96524.00;;;;5069822;28;20601;-74
2022/12/07 04:35:20;;;;;;;0.10;0.10;;;2.10;99.90;0.60;96508.00;;;;5069389;28;20218;-74
2022/12/07 04:37:49;;;;;;;0.10;0.10;;;2.00;99.90;0.60;96508.00;;;;5069999;28;20243;-74
2022/12/07 04:40:18;;;;;;;0.10;0.10;;;2.00;99.90;0.30;96520.00;;;;5069769;28;20186;-74
2022/12/07 04:42:46;;;;;;;0.10;0.10;;;2.00;99.90;0.60;96507.00;;;;5069913;28;20213;-74
2022/12/07 04:45:14;;;;;;;0.10;0.10;;;2.00;99.90;0.70;96513.00;;;;5069120;28;20287;-75
2022/12/07 04:47:42;;;;;;;0.10;0.10;;;2.10;99.90;0.70;96504.00;;;;5068809;28;20221;-75
2022/12/07 04:50:11;;;;;;;0.10;0.10;;;2.10;99.90;0.70;96508.00;;;;5063769;28;20759;-75
2022/12/07 04:52:39;;;;;;;0.10;0.10;;;2.20;99.90;0.80;96517.00;;;;5075535;28;20245;-75
2022/12/07 04:55:09;;;;;;;0.10;0.10;;;2.20;99.90;0.80;96511.00;;;;5070584;28;20338;-75
2022/12/07 04:57:37;;;;;;;0.10;0.10;;;2.20;99.90;0.80;96503.00;;;;5071783;28;20609;-74
2022/12/07 05:00:07;;;;;;;0.10;0.10;;;2.20;99.90;0.70;96364.00;;;;5072850;28;20604;-75
2022/12/07 05:02:35;;;;;;;0.10;0.10;;;2.20;99.90;0.80;96507.00;;;;5071589;28;20267;-77
2022/12/07 05:05:04;;;;;;;0.10;0.10;;;2.20;99.90;0.80;96498.00;;;;5067968;28;20217;-77
2022/12/07 05:07:32;;;;;;;0.10;0.10;;;2.20;99.90;0.90;96510.00;;;;5071804;28;20774;-74
2022/12/07 05:10:01;;;;;;;0.10;0.10;;;2.20;99.90;0.90;96519.00;;;;5072852;28;20227;-77
2022/12/07 05:12:31;;;;;;;0.10;0.10;;;2.30;99.90;0.90;96507.00;;;;5074725;28;20202;-77
2022/12/07 05:14:59;;;;;;;0.10;0.10;;;2.30;99.90;0.80;96493.00;;;;5074605;28;20213;-76
2022/12/07 05:17:27;;;;;;;0.10;0.10;;;2.20;99.90;0.90;96503.00;;;;5076828;28;20190;-74
2022/12/07 05:19:55;;;;;;;0.10;0.10;;;2.20;99.90;0.90;96509.00;;;;5072148;28;20239;-74
2022/12/07 05:22:25;;;;;;;0.10;0.10;;;2.20;99.90;0.90;96512.00;;;;5071558;28;20279;-75
2022/12/07 05:24:53;;;;;;;0.10;0.10;;;2.20;99.90;0.90;96518.00;;;;5071049;28;20692;-75
2022/12/07 05:27:21;;;;;;;0.10;0.10;;;2.30;99.90;0.90;96514.00;;;;5064876;28;20201;-75
2022/12/07 05:29:51;;;;;;;0.10;0.10;;;2.30;99.90;0.90;96529.00;;;;5072083;28;20738;-75
2022/12/07 05:32:19;;;;;;;0.10;0.10;;;2.30;99.90;1.00;96534.00;;;;5069547;28;20193;-76
2022/12/07 05:34:47;;;;;;;0.10;0.10;;;2.30;99.90;1.00;96520.00;;;;5072536;28;20209;-75
2022/12/07 05:37:15;;;;;;;0.10;0.10;;;2.40;99.90;1.00;96526.00;;;;5072351;28;20600;-75
2022/12/07 05:39:44;;;;;;;0.10;0.10;;;2.40;99.90;1.00;96522.00;;;;5071641;28;20319;-75
2022/12/07 05:42:12;;;;;;;0.10;0.10;;;2.40;99.90;1.00;96495.00;;;;5072522;28;20198;-75
2022/12/07 05:44:40;;;;;;;0.10;0.10;;;2.40;99.90;1.10;96513.00;;;;5071846;28;20773;-75
2022/12/07 05:47:10;;;;;;;0.10;0.10;;;2.40;99.90;1.10;96512.00;;;;5072717;28;20240;-75
2022/12/07 05:49:38;;;;;;;0.10;0.10;;;2.40;99.90;1.10;96507.00;;;;5071584;28;20223;-75
2022/12/07 05:52:07;;;;;;;0.10;0.10;;;2.40;99.90;1.00;96507.00;;;;5066412;28;20263;-75
2022/12/07 05:54:35;;;;;;;0.10;0.10;;;2.40;99.90;1.00;96514.00;;;;5071109;28;20564;-75
2022/12/07 05:57:03;;;;;;;0.10;0.10;;;2.40;99.90;1.00;96511.00;;;;5072226;28;20189;-76
2022/12/07 05:59:31;;;;;;;0.10;0.10;;;2.40;99.90;1.10;96518.00;;;;5072722;28;20235;-76
2022/12/07 06:02:01;;;;;;;0.10;0.10;;;2.40;99.90;1.00;96519.00;;;;5074765;28;20197;-74
2022/12/07 06:04:35;;;;;;;0.10;0.10;;;2.40;99.90;1.00;96504.00;;;;5071284;28;20332;-77
2022/12/07 06:07:03;;;;;;;0.10;0.10;;;2.40;99.90;1.10;96508.00;;;;5072136;28;20185;-74
2022/12/07 06:09:32;;;;;;;0.10;0.10;;;2.40;99.90;1.10;96502.00;;;;5076691;28;20393;-75
2022/12/07 06:14:47;;;;;;;0.10;0.10;;;2.40;99.90;1.10;96510.00;;;;5059505;28;20221;-77
2022/12/07 06:17:15;;;;;;;0.10;0.10;;;2.50;99.90;1.10;96509.00;;;;5066989;28;20218;-74
2022/12/07 06:19:45;;;;;;;0.10;0.10;;;2.50;99.90;1.20;96519.00;;;;5072163;28;20633;-77
2022/12/07 06:22:13;;;;;;;0.10;0.10;;;2.50;99.90;1.20;96526.00;;;;5071696;28;20205;-78
2022/12/07 06:24:41;;;;;;;0.10;0.10;;;2.50;99.90;1.20;96506.00;;;;5071076;28;20240;-75
2022/12/07 06:27:10;;;;;;;0.10;0.10;;;2.60;99.90;1.20;96528.00;;;;5066985;28;20197;-79
2022/12/07 06:29:38;;;;;;;0.10;0.10;;;2.60;99.90;1.30;96536.00;;;;5059316;28;20209;-75
2022/12/07 06:32:07;;;;;;;0.10;0.10;;;2.60;99.90;1.30;96527.00;;;;5071345;28;20206;-77
2022/12/07 06:34:35;;;;;;;0.10;0.10;;;2.70;99.90;1.40;96529.00;;;;5071508;28;20932;-76
2022/12/07 06:37:05;;;;;;;0.10;0.10;;;2.70;99.90;1.40;96526.00;;;;5071173;28;20251;-77
2022/12/07 06:39:33;;;;;;;0.10;0.10;;;2.70;99.90;1.40;96538.00;;;;5072531;28;20197;-75
2022/12/07 06:42:01;;;;;;;0.10;0.10;;;2.70;99.90;1.40;96539.00;;;;5068546;28;20205;-75
2022/12/07 06:44:29;;;;;;;0.10;0.10;;;2.80;99.90;1.50;96523.00;;;;5071244;28;20225;-75
2022/12/07 06:46:57;;;;;;;0.10;0.10;;;2.80;99.90;1.40;96524.00;;;;5070405;28;20633;-75
2022/12/07 06:49:45;;;;;;;0.10;0.10;;;2.80;99.90;1.40;96522.00;;;;5067832;28;20193;-75
2022/12/07 06:52:15;;;;;;;0.10;0.10;;;2.80;99.90;1.40;96529.00;;;;5072135;28;20213;-74
2022/12/07 06:54:43;;;;;;;0.10;0.10;;;2.70;99.90;1.40;96535.00;;;;5067514;28;20214;-74
2022/12/07 06:57:12;;;;;;;0.10;0.10;;;2.70;99.90;1.40;96596.00;;;;5071199;28;20727;-74
2022/12/07 06:59:41;;;;;;;0.10;0.10;;;2.70;99.90;1.40;96526.00;;;;5051484;28;20208;-75
2022/12/07 07:02:10;;;;;;;0.10;0.10;;;2.70;99.90;1.40;96528.00;;;;5073623;28;20198;-74
2022/12/07 07:04:38;;;;;;;0.10;0.10;;;2.70;99.90;1.40;96525.00;;;;5071035;28;20221;-74
2022/12/07 07:07:06;;;;;;;0.10;0.10;;;2.70;99.90;1.40;96524.00;;;;5066932;28;20623;-75
2022/12/07 07:09:36;;;;;;;0.10;0.10;;;2.70;99.90;1.40;96533.00;;;;5070021;28;20193;-73
2022/12/07 07:12:04;;;;;;;0.10;0.10;;;2.80;99.90;1.40;96521.00;;;;5070066;28;20240;-72
2022/12/07 07:14:33;;;;;;;0.10;0.10;;;2.80;99.90;1.40;96527.00;;;;5070265;28;20217;-72
2022/12/07 07:17:01;;;;;;;0.10;0.10;;;2.70;99.90;1.40;96529.00;;;;5070495;28;20186;-73
2022/12/07 07:19:29;;;;;;;0.10;0.10;;;2.70;99.90;1.40;96538.00;;;;5070395;28;21002;-73
2022/12/07 07:21:57;;;;;;;0.10;0.10;;;2.80;99.90;1.40;96525.00;;;;5070357;28;20193;-73
2022/12/07 07:24:26;;;;;;;0.10;0.10;;;2.80;99.90;1.40;96530.00;;;;5071042;28;20747;-72
2022/12/07 07:26:55;;;;;;;0.10;0.10;;;2.70;99.90;1.40;96537.00;;;;5063352;28;20243;-73
2022/12/07 07:29:23;;;;;;;0.10;0.10;;;2.80;99.90;1.50;96532.00;;;;5069734;28;20243;-74
2022/12/07 07:31:51;;;;;;;0.10;0.10;;;2.80;99.90;1.20;96220.00;;;;5059523;28;20206;-74
2022/12/07 07:34:20;;;;;;;0.10;0.10;;;2.80;99.90;1.50;96523.00;;;;5070645;28;20766;-73
2022/12/07 07:36:48;;;;;;;0.10;0.10;;;2.80;99.90;1.30;96216.00;;;;5061867;28;20201;-74
2022/12/07 07:39:16;;;;;;;0.20;0.20;;;2.80;99.90;1.20;96227.00;;;;5070198;28;20189;-74
2022/12/07 07:41:44;;;;;;;0.20;0.20;;;2.80;99.90;1.20;96240.00;;;;5070967;28;20656;-73
2022/12/07 07:44:16;;;;;;;0.10;0.10;;;2.80;99.90;1.20;96221.00;;;;5065707;28;20275;-73
2022/12/07 07:46:44;;;;;;;0.10;0.10;;;2.70;99.90;1.20;96223.00;;;;5069863;28;20193;-75
2022/12/07 07:49:12;;;;;;;0.10;0.10;;;2.70;99.90;1.20;96240.00;;;;5069835;28;20182;-74
2022/12/07 07:51:40;;;;;;;0.10;0.10;;;2.70;99.90;1.20;96257.00;;;;5070131;28;20201;-73
2022/12/07 07:54:08;;;;;;;0.10;0.10;;;2.70;99.90;1.20;96237.00;;;;5069420;28;20221;-76
2022/12/07 07:56:37;;;;;;;0.10;0.10;;;2.70;99.90;1.10;96252.00;;;;5069119;28;20217;-73
2022/12/07 07:59:05;;;;;;;0.10;0.10;;;2.70;99.90;1.10;96258.00;;;;5065627;28;20202;-73
2022/12/07 08:01:34;;;;;;;0.10;0.10;;;2.70;99.90;1.10;96164.00;;;;5067599;28;20243;-73
2022/12/07 08:04:03;;;;;;;0.10;0.10;;;2.70;99.90;1.10;96239.00;;;;5069612;28;20697;-73
2022/12/07 08:06:31;;;;;;;0.10;0.10;;;2.60;99.90;1.10;96253.00;;;;5069543;28;20247;-74
2022/12/07 08:08:59;;;;;;;0.17;0.17;;;2.70;99.90;1.10;96261.00;;;;5069316;28;20649;-73
2022/12/07 08:11:28;;;;;;;0.10;0.10;;;2.60;99.90;1.10;96271.00;;;;5068815;28;20204;-73
2022/12/07 08:13:56;;;;;;;0.10;0.10;;;2.60;99.90;1.10;96278.00;;;;5082677;28;20231;-73
2022/12/07 08:16:24;;;;;;;0.10;0.10;;;2.70;99.90;1.10;96257.00;;;;5072067;28;20198;-73
2022/12/07 08:18:53;;;;;;;0.10;0.10;;;2.70;99.90;1.10;96272.00;;;;5068997;28;20193;-73
2022/12/07 08:21:22;;;;;;;0.10;0.10;;;2.70;99.90;1.20;96280.00;;;;5069506;28;20202;-73
2022/12/07 08:23:50;;;;;;;0.10;0.10;;;2.70;99.90;1.20;96299.00;;;;5072758;28;20217;-73
2022/12/07 08:26:18;;;;;;;0.10;0.10;;;2.80;99.90;1.20;96286.00;;;;5071985;28;20610;-73
2022/12/07 08:28:46;;;;;;;0.10;0.10;;;2.80;99.90;1.30;96292.00;;;;5072766;28;20205;-74
2022/12/07 08:31:17;;;;;;;0.10;0.10;;;2.80;99.90;1.30;96298.00;;;;5073097;28;20243;-73
2022/12/07 08:33:47;;;;;;;0.05;0.05;;;2.80;99.90;1.20;96293.00;;;;5073640;28;20601;-75
2022/12/07 08:36:17;;;;;;;0.10;0.10;;;2.80;99.90;1.30;96303.00;;;;5072599;28;20201;-74
2022/12/07 08:38:46;;;;;;;0.10;0.10;;;2.90;99.90;1.40;96323.00;;;;5054453;28;20206;-74
2022/12/07 08:41:35;;;;;;;0.10;0.10;;;2.90;99.90;1.30;96318.00;;;;5066740;28;20194;-74
2022/12/07 08:44:03;;;;;;;0.10;0.10;;;2.80;99.90;1.40;96301.00;;;;5061659;28;20221;-73
2022/12/07 08:46:38;;;;;;;0.10;0.10;;;2.90;99.90;1.50;96300.00;;;;5071186;28;20224;-74
2022/12/07 08:49:12;;;;;;;0.10;0.10;;;3.00;99.90;1.60;96308.00;;;;5071397;28;20202;-74
2022/12/07 08:51:42;;;;;;;0.10;0.10;;;3.10;99.90;1.60;96303.00;;;;5071445;28;20298;-74
2022/12/07 08:54:15;;;;;;;0.10;0.10;;;3.10;99.90;1.60;96301.00;;;;5061869;28;20221;-74
2022/12/07 08:56:45;;;;;;;0.10;0.10;;;3.10;99.90;1.60;96320.00;;;;5072325;28;20193;-74
2022/12/07 08:59:16;;;;;;;0.10;0.10;;;3.20;99.90;1.70;96315.00;;;;5073754;28;20193;-74
2022/12/07 09:01:44;;;;;;;0.10;0.10;;;3.20;99.90;1.70;96319.00;;;;5074403;28;20217;-75
2022/12/07 09:04:13;;;;;;;0.10;0.10;;;3.20;99.90;1.80;96308.00;;;;5079917;28;20294;-74
2022/12/07 09:06:43;;;;;;;0.10;0.10;;;3.30;99.90;1.80;96296.00;;;;5084866;28;20198;-75
2022/12/07 09:09:14;;;;;;;0.10;0.10;;;3.30;99.90;1.80;96303.00;;;;5083137;28;20657;-73
2022/12/07 09:11:44;;;;;;;0.10;0.10;;;3.30;99.90;1.80;96295.00;;;;5063209;28;20790;-73
2022/12/07 09:14:13;;;;;;;0.10;0.10;;;3.30;99.90;1.80;96317.00;;;;5078242;28;20776;-72
2022/12/07 09:16:41;;;;;;;0.10;0.10;;;3.30;99.90;1.80;96296.00;;;;5073110;28;20193;-73
2022/12/07 09:19:09;;;;;;;0.10;0.10;;;3.40;99.90;1.90;96306.00;;;;5072036;28;20198;-73
2022/12/07 09:21:38;;;;;;;0.10;0.10;;;3.40;99.90;1.90;96314.00;;;;5072213;28;20193;-73
2022/12/07 09:24:09;;;;;;;0.10;0.10;;;3.40;99.90;1.90;96288.00;;;;5071170;28;20634;-73
2022/12/07 09:26:39;;;;;;;0.10;0.10;;;3.50;99.90;2.00;96296.00;;;;5070620;28;20206;-73
2022/12/07 09:29:07;;;;;;;0.10;0.10;;;3.50;99.90;2.00;96299.00;;;;5067277;28;20202;-73
2022/12/07 09:31:38;;;;;;;0.10;0.10;;;3.50;99.90;2.10;96297.00;;;;5070632;28;20689;-74
2022/12/07 09:34:06;;;;;;;0.10;0.10;;;3.60;99.90;2.10;96309.00;;;;5072089;28;20214;-73
2022/12/07 09:36:35;;;;;;;0.10;0.10;;;3.60;99.90;2.20;96296.00;;;;5073834;28;20200;-73
2022/12/07 09:39:04;;;;;;;0.10;0.10;;;3.70;99.90;2.20;96300.00;;;;5073104;28;20198;-75
2022/12/07 09:41:37;;;;;;;0.10;0.10;;;3.70;99.90;2.30;96289.00;;;;5073118;28;20261;-73
2022/12/07 09:44:10;;;;;;;0.10;0.10;;;3.80;99.90;2.30;96287.00;;;;5073099;28;20720;-75
2022/12/07 09:46:42;;;;;;;0.10;0.10;;;3.80;99.90;2.30;96265.00;;;;5073153;28;20197;-73
2022/12/07 09:49:17;;;;;;;0.10;0.10;;;3.80;99.90;2.50;96291.00;;;;5072945;28;20241;-72
2022/12/07 09:51:46;;;;;;;0.10;0.10;;;3.90;99.90;2.50;96200.00;;;;5072802;28;20195;-73
2022/12/07 09:54:17;;;;;;;0.10;0.10;;;3.90;99.90;2.60;96269.00;;;;5072778;28;20216;-74
2022/12/07 09:56:46;;;;;;;0.10;0.10;;;4.00;99.90;2.60;96283.00;;;;5073086;28;20190;-73
2022/12/07 09:59:19;;;;;;;0.10;0.10;;;4.10;99.90;2.70;96290.00;;;;5072351;28;20190;-76
2022/12/07 10:01:50;;;;;;;0.10;0.10;;;4.20;99.90;2.70;96276.00;;;;5072627;28;20190;-73
2022/12/07 10:04:23;;;;;;;0.10;0.10;;;4.20;99.90;2.70;96284.00;;;;5072869;28;20300;-74
2022/12/07 10:06:51;;;;;;;0.10;0.10;;;4.20;99.90;2.80;96289.00;;;;5069917;28;20198;-73
2022/12/07 10:09:22;;;;;;;0.10;0.10;;;4.20;99.90;2.90;96282.00;;;;5072080;28;20228;-73
2022/12/07 10:12:08;;;;;;;0.10;0.10;;;4.30;99.90;2.90;96295.00;;;;5070508;28;20190;-75
2022/12/07 10:14:40;;;;;;;0.10;0.10;;;4.30;99.90;2.90;96266.00;;;;5058473;28;20213;-74
2022/12/07 10:17:38;;;;;;;0.10;0.10;;;4.30;99.90;2.90;96244.00;;;;5067383;28;20280;-74
2022/12/07 10:20:21;;;;;;;0.10;0.10;;;4.30;99.90;2.80;96275.00;;;;5072619;28;20208;-73
2022/12/07 10:23:02;;;;;;;0.10;0.10;;;4.30;99.90;2.80;96222.00;;;;5070759;28;20194;-73
2022/12/07 10:25:35;;;;;;;0.10;0.10;;;4.30;99.90;2.90;96235.00;;;;5067245;28;20210;-73
2022/12/07 10:28:17;;;;;;;0.10;0.10;;;4.40;99.90;3.10;96220.00;;;;5072069;28;20542;-74
2022/12/07 10:31:16;;;;;;;0.10;0.10;;;4.50;99.90;3.00;96172.00;;;;5072192;28;20549;-75
2022/12/07 10:33:52;;;;;;;0.10;0.10;;;4.50;99.90;3.10;96252.00;;;;5072039;28;20247;-73
2022/12/07 10:36:26;;;;;;;0.10;0.10;;;4.50;99.90;3.00;96192.00;;;;5064164;28;20264;-73
2022/12/07 10:39:03;;;;;;;0.10;0.10;;;4.40;99.90;3.00;96212.00;;;;5069929;28;20216;-73
2022/12/07 10:41:31;;;;;;;0.10;0.10;;;4.40;99.90;2.90;96217.00;;;;5071916;28;20212;-73
2022/12/07 10:44:00;;;;;;;0.10;0.10;;;4.40;99.90;3.10;96528.00;;;;5071021;28;20223;-73
2022/12/07 10:47:14;;;;;;;0.10;0.10;;;4.40;99.90;3.10;96527.00;;;;5069807;28;20217;-73
2022/12/07 10:50:15;;;;;;;0.10;0.10;;;4.40;99.90;3.20;96541.00;;;;5060343;28;20210;-73
2022/12/07 10:53:20;;;;;;;0.10;0.10;;;4.50;99.90;3.20;96539.00;;;;5071629;28;20579;-74
2022/12/07 10:56:11;;;;;;;0.10;0.10;;;4.50;99.90;3.30;96540.00;;;;5071367;28;20225;-75
2022/12/07 10:58:58;;;;;;;0.10;0.10;;;4.60;99.90;3.40;96538.00;;;;5065867;28;20587;-72
2022/12/07 11:01:35;;;;;;;0.10;0.10;;;4.60;99.90;3.40;96557.00;;;;5072219;28;20718;-73
2022/12/07 11:04:36;;;;;;;0.10;0.10;;;4.60;99.90;3.50;96479.00;;;;5069753;28;20675;-73
2022/12/07 11:07:15;;;;;;;0.10;0.10;;;4.70;99.90;3.40;96539.00;;;;5072970;28;20217;-73
2022/12/07 11:10:03;;;;;;;0.10;0.10;;;4.70;99.90;3.60;96539.00;;;;5074570;28;20208;-74
2022/12/07 11:13:00;;;;;;;0.10;0.10;;;4.80;99.90;3.80;96538.00;;;;5067742;28;20190;-73
2022/12/07 11:15:42;;;;;;;0.10;0.10;;;5.00;99.90;3.90;96555.00;;;;5069706;28;20301;-74
2022/12/07 11:18:25;;;;;;;0.10;0.10;;;5.10;99.90;3.90;96528.00;;;;5070790;28;20205;-73
2022/12/07 11:21:05;;;;;;;0.10;0.10;;;5.10;99.90;3.70;96520.00;;;;5070952;28;20190;-73
2022/12/07 11:23:49;;;;;;;0.00;0.00;;;4.90;99.90;3.70;96438.00;;;;5070183;28;20197;-74
2022/12/07 11:26:33;;;;;;;0.10;0.10;;;4.90;99.90;3.60;96457.00;;;;5067514;28;20221;-73
2022/12/07 11:29:22;;;;;;;0.10;0.10;;;4.90;99.90;3.30;96214.00;;;;5071102;28;20209;-73
2022/12/07 11:32:06;;;;;;;0.10;0.10;;;4.90;99.90;3.50;96518.00;;;;5071633;28;20755;-74
2022/12/07 11:34:52;;;;;;;0.10;0.10;;;4.80;99.90;3.50;96516.00;;;;5068520;28;20229;-72
2022/12/07 11:37:29;;;;;;;0.10;0.10;;;4.80;99.90;3.20;96163.00;;;;5068430;28;20227;-76